createdAt,value
2022-09-02T00:01:12.065Z,21.10
2022-09-02T00:03:39.793Z,21.00
2022-09-02T00:06:07.730Z,21.00
2022-09-02T00:08:35.613Z,21.00
2022-09-02T00:11:06.753Z,21.00
2022-09-02T00:13:35.706Z,21.00
2022-09-02T00:16:04.131Z,20.90
2022-09-02T00:18:32.273Z,20.90
2022-09-02T00:21:00.653Z,20.90
2022-09-02T00:23:28.346Z,20.90
2022-09-02T00:25:56.573Z,20.90
2022-09-02T00:28:24.216Z,20.80
2022-09-02T00:30:52.154Z,20.80
2022-09-02T00:33:19.834Z,20.80
2022-09-02T00:35:47.973Z,20.70
2022-09-02T00:38:15.925Z,20.70
2022-09-02T00:40:48.409Z,20.70
2022-09-02T00:43:27.043Z,20.70
2022-09-02T00:45:56.061Z,20.60
2022-09-02T00:48:23.958Z,20.60
2022-09-02T00:50:52.059Z,20.60
2022-09-02T00:53:20.886Z,20.60
2022-09-02T00:55:50.627Z,20.50
2022-09-02T00:58:31.098Z,20.50
2022-09-02T01:01:00.407Z,20.50
2022-09-02T01:03:28.975Z,20.50
2022-09-02T01:05:57.424Z,20.50
2022-09-02T01:08:29.226Z,20.40
2022-09-02T01:10:58.039Z,20.40
2022-09-02T01:13:26.791Z,20.40
2022-09-02T01:16:05.410Z,20.40
2022-09-02T01:18:36.544Z,20.40
2022-09-02T01:21:04.252Z,20.40
2022-09-02T01:23:34.748Z,20.30
2022-09-02T01:26:02.928Z,20.30
2022-09-02T01:28:33.294Z,20.30
2022-09-02T01:31:01.000Z,20.30
2022-09-02T01:33:29.192Z,20.20
2022-09-02T01:35:59.566Z,20.20
2022-09-02T01:38:27.356Z,20.20
2022-09-02T01:40:55.040Z,20.20
2022-09-02T01:43:24.205Z,20.10
2022-09-02T01:45:54.196Z,20.10
2022-09-02T01:48:22.094Z,20.10
2022-09-02T01:50:56.237Z,20.10
2022-09-02T01:53:24.279Z,20.10
2022-09-02T01:55:52.234Z,20.00
2022-09-02T01:58:20.249Z,20.00
2022-09-02T02:00:48.267Z,20.00
2022-09-02T02:03:15.917Z,20.00
2022-09-02T02:05:43.977Z,20.00
2022-09-02T02:08:11.650Z,19.90
2022-09-02T02:10:41.362Z,19.90
2022-09-02T02:13:09.015Z,19.90
2022-09-02T02:15:40.511Z,19.90
2022-09-02T02:18:08.502Z,19.90
2022-09-02T02:20:36.682Z,19.90
2022-09-02T02:23:05.538Z,19.80
2022-09-02T02:25:33.503Z,19.80
2022-09-02T02:28:02.547Z,19.80
2022-09-02T02:30:30.630Z,19.80
2022-09-02T02:32:58.271Z,19.80
2022-09-02T02:35:26.376Z,19.70
2022-09-02T02:37:54.331Z,19.70
2022-09-02T02:40:24.976Z,19.70
2022-09-02T02:42:53.976Z,19.70
2022-09-02T02:45:22.980Z,19.70
2022-09-02T02:47:51.208Z,19.70
2022-09-02T02:50:20.863Z,19.70
2022-09-02T02:52:48.752Z,19.60
2022-09-02T02:55:16.991Z,19.60
2022-09-02T02:57:44.609Z,19.60
2022-09-02T03:00:18.279Z,19.60
2022-09-02T03:02:46.106Z,19.60
2022-09-02T03:05:15.356Z,19.60
2022-09-02T03:07:43.536Z,19.50
2022-09-02T03:10:11.909Z,19.50
2022-09-02T03:12:40.076Z,19.50
2022-09-02T03:15:09.197Z,19.50
2022-09-02T03:17:37.952Z,19.50
2022-09-02T03:20:06.288Z,19.50
2022-09-02T03:22:35.717Z,19.50
2022-09-02T03:25:03.329Z,19.50
2022-09-02T03:27:30.977Z,19.50
2022-09-02T03:29:58.565Z,19.40
2022-09-02T03:32:30.532Z,19.50
2022-09-02T03:34:58.353Z,19.40
2022-09-02T03:37:26.055Z,19.40
2022-09-02T03:39:53.673Z,19.40
2022-09-02T03:42:21.307Z,19.40
2022-09-02T03:44:49.014Z,19.40
2022-09-02T03:47:17.658Z,19.40
2022-09-02T03:49:48.607Z,19.40
2022-09-02T03:52:16.203Z,19.40
2022-09-02T03:54:43.827Z,19.40
2022-09-02T03:57:11.422Z,19.40
2022-09-02T03:59:39.731Z,19.30
2022-09-02T04:02:07.525Z,19.30
2022-09-02T04:04:35.629Z,19.30
2022-09-02T04:07:03.768Z,19.30
2022-09-02T04:09:31.383Z,19.30
2022-09-02T04:11:59.011Z,19.30
2022-09-02T04:14:27.691Z,19.30
2022-09-02T04:16:55.303Z,19.30
2022-09-02T04:19:22.944Z,19.30
2022-09-02T04:21:50.616Z,19.30
2022-09-02T04:24:18.234Z,19.30
2022-09-02T04:26:46.011Z,19.30
2022-09-02T04:29:13.855Z,19.30
2022-09-02T04:31:41.591Z,19.20
2022-09-02T04:34:09.300Z,19.20
2022-09-02T04:36:36.899Z,19.20
2022-09-02T04:39:05.992Z,19.20
2022-09-02T04:41:35.597Z,19.20
2022-09-02T04:44:03.589Z,19.20
2022-09-02T04:46:34.289Z,19.20
2022-09-02T04:49:03.785Z,19.20
2022-09-02T04:51:32.558Z,19.20
2022-09-02T04:54:01.081Z,19.20
2022-09-02T04:56:29.633Z,19.20
2022-09-02T04:58:57.425Z,19.20
2022-09-02T05:01:26.730Z,19.20
2022-09-02T05:03:54.550Z,19.20
2022-09-02T05:06:23.600Z,19.20
2022-09-02T05:08:51.197Z,19.20
2022-09-02T05:11:20.509Z,19.10
2022-09-02T05:13:51.404Z,19.20
2022-09-02T05:16:23.670Z,19.10
2022-09-02T05:18:52.274Z,19.10
2022-09-02T05:21:20.255Z,19.10
2022-09-02T05:23:47.887Z,19.10
2022-09-02T05:26:15.846Z,19.10
2022-09-02T05:28:43.602Z,19.10
2022-09-02T05:31:15.923Z,19.10
2022-09-02T05:33:43.751Z,19.10
2022-09-02T05:36:13.523Z,19.10
2022-09-02T05:38:44.579Z,19.10
2022-09-02T05:41:24.241Z,19.10
2022-09-02T05:43:53.363Z,19.10
2022-09-02T05:46:23.234Z,19.10
2022-09-02T05:49:10.071Z,19.10
2022-09-02T05:51:41.803Z,19.10
2022-09-02T05:54:21.136Z,19.10
2022-09-02T05:56:51.444Z,19.10
2022-09-02T05:59:20.316Z,19.10
2022-09-02T06:01:49.280Z,19.20
2022-09-02T06:04:17.264Z,19.20
2022-09-02T06:06:44.921Z,19.20
2022-09-02T06:09:13.518Z,19.20
2022-09-02T06:11:45.613Z,19.20
2022-09-02T06:14:17.096Z,19.20
2022-09-02T06:16:45.284Z,19.20
2022-09-02T06:19:15.355Z,19.20
2022-09-02T06:21:47.427Z,19.20
2022-09-02T06:24:15.449Z,19.20
2022-09-02T06:26:43.439Z,19.20
2022-09-02T06:29:11.741Z,19.30
2022-09-02T06:31:41.711Z,19.20
2022-09-02T06:34:12.430Z,19.30
2022-09-02T06:36:40.914Z,19.30
2022-09-02T06:39:08.705Z,19.30
2022-09-02T06:41:36.917Z,19.30
2022-09-02T06:44:07.027Z,19.30
2022-09-02T06:46:36.947Z,19.30
2022-09-02T06:49:05.225Z,19.30
2022-09-02T06:51:34.548Z,19.30
2022-09-02T06:54:02.796Z,19.40
2022-09-02T06:56:30.469Z,19.40
2022-09-02T06:58:58.363Z,19.40
2022-09-02T07:01:28.058Z,19.40
2022-09-02T07:04:13.459Z,19.40
2022-09-02T07:06:42.867Z,19.40
2022-09-02T07:09:12.354Z,19.40
2022-09-02T07:11:40.847Z,19.40
2022-09-02T07:14:08.539Z,19.50
2022-09-02T07:16:38.178Z,19.40
2022-09-02T07:19:12.445Z,19.40
2022-09-02T07:21:42.480Z,19.30
2022-09-02T07:24:10.949Z,19.30
2022-09-02T07:26:39.175Z,19.20
2022-09-02T07:29:08.685Z,19.20
2022-09-02T07:31:41.240Z,19.20
2022-09-02T07:34:10.090Z,19.20
2022-09-02T07:36:38.696Z,19.20
2022-09-02T07:39:07.643Z,19.20
2022-09-02T07:41:36.464Z,19.20
2022-09-02T07:44:05.553Z,19.20
2022-09-02T07:46:34.290Z,19.20
2022-09-02T07:49:04.085Z,19.30
2022-09-02T07:51:33.597Z,19.30
2022-09-02T07:54:01.970Z,19.40
2022-09-02T07:56:30.350Z,19.40
2022-09-02T07:58:58.149Z,19.40
2022-09-02T08:01:26.335Z,19.50
2022-09-02T08:03:54.633Z,19.60
2022-09-02T08:06:33.694Z,19.60
2022-09-02T08:09:03.574Z,19.70
2022-09-02T08:11:32.050Z,19.80
2022-09-02T08:14:00.611Z,19.80
2022-09-02T08:16:28.804Z,19.90
2022-09-02T08:56:02.557Z,19.90
2022-09-02T08:58:35.516Z,21.10
2022-09-02T09:01:26.507Z,21.10
2022-09-02T09:04:09.939Z,21.20
2022-09-02T09:09:05.828Z,21.20
2022-09-02T09:11:55.835Z,21.40
2022-09-02T09:24:31.462Z,21.50
2022-09-02T09:26:59.369Z,21.80
2022-09-02T09:29:27.038Z,21.90
2022-09-02T09:31:59.907Z,22.00
2022-09-02T09:34:49.101Z,22.10
2022-09-02T09:37:37.054Z,22.10
2022-09-02T09:40:20.343Z,22.20
2022-09-02T09:42:55.591Z,22.30
2022-09-02T09:45:35.574Z,22.40
2022-09-02T09:48:19.238Z,22.50
2022-09-02T09:50:47.882Z,22.50
2022-09-02T09:53:17.086Z,22.60
2022-09-02T09:56:05.086Z,22.70
2022-09-02T09:58:34.714Z,22.70
2022-09-02T10:01:31.979Z,22.90
2022-09-02T10:04:02.023Z,22.90
2022-09-02T10:06:32.863Z,23.00
2022-09-02T10:09:00.786Z,23.10
2022-09-02T10:11:30.239Z,23.20
2022-09-02T10:14:02.468Z,23.30
2022-09-02T10:16:54.291Z,23.40
2022-09-02T10:19:42.599Z,23.40
2022-09-02T10:22:16.458Z,23.60
2022-09-02T10:24:47.236Z,23.70
2022-09-02T10:27:20.048Z,23.80
2022-09-02T10:29:59.157Z,23.90
2022-09-02T10:32:38.978Z,24.00
2022-09-02T10:35:22.299Z,24.10
2022-09-02T10:38:01.619Z,24.30
2022-09-02T10:40:51.592Z,24.30
2022-09-02T10:43:49.192Z,24.40
2022-09-02T10:46:26.183Z,24.60
2022-09-02T10:48:54.164Z,24.70
2022-09-02T10:51:29.092Z,24.80
2022-09-02T10:54:01.248Z,24.80
2022-09-02T10:56:40.194Z,24.90
2022-09-02T10:59:15.293Z,24.90
2022-09-02T11:02:01.468Z,25.00
2022-09-02T11:04:46.897Z,25.00
2022-09-02T11:07:18.128Z,24.90
2022-09-02T11:09:49.297Z,24.90
2022-09-02T11:12:25.377Z,24.90
2022-09-02T11:15:05.377Z,25.00
2022-09-02T11:17:48.514Z,25.10
2022-09-02T11:20:19.526Z,25.30
2022-09-02T11:22:55.410Z,25.40
2022-09-02T11:25:25.462Z,25.40
2022-09-02T11:28:03.615Z,25.50
2022-09-02T11:30:54.943Z,25.60
2022-09-02T11:33:44.066Z,25.70
2022-09-02T11:36:12.529Z,25.80
2022-09-02T11:38:48.358Z,25.90
2022-09-02T11:41:34.094Z,26.00
2022-09-02T11:44:19.343Z,26.10
2022-09-02T11:47:07.502Z,26.20
2022-09-02T11:49:41.312Z,26.20
2022-09-02T11:52:24.348Z,26.40
2022-09-02T11:54:59.460Z,26.40
2022-09-02T11:57:30.116Z,26.40
2022-09-02T11:59:58.055Z,26.30
2022-09-02T12:02:37.023Z,26.30
2022-09-02T12:05:23.781Z,26.20
2022-09-02T12:07:51.552Z,26.10
2022-09-02T12:10:38.308Z,26.20
2022-09-02T12:13:08.449Z,26.20
2022-09-02T12:15:38.633Z,26.30
2022-09-02T12:18:29.644Z,26.30
2022-09-02T12:21:00.697Z,26.30
2022-09-02T12:23:47.294Z,26.40
2022-09-02T12:26:16.102Z,26.50
2022-09-02T12:28:46.082Z,26.60
2022-09-02T12:31:32.361Z,26.70
2022-09-02T12:34:02.280Z,26.80
2022-09-02T12:36:39.892Z,27.00
2022-09-02T12:39:31.887Z,27.10
2022-09-02T12:42:11.768Z,27.10
2022-09-02T12:44:58.246Z,27.10
2022-09-02T12:47:26.979Z,27.00
2022-09-02T12:50:00.642Z,27.10
2022-09-02T12:52:45.310Z,27.20
2022-09-02T12:55:27.307Z,27.30
2022-09-02T12:58:07.559Z,27.40
2022-09-02T13:00:46.348Z,27.50
2022-09-02T13:03:32.795Z,27.60
2022-09-02T13:06:04.182Z,27.60
2022-09-02T13:08:31.791Z,27.70
2022-09-02T13:11:18.226Z,27.80
2022-09-02T13:14:01.314Z,27.90
2022-09-02T13:16:47.823Z,28.00
2022-09-02T13:19:20.278Z,28.10
2022-09-02T13:21:51.034Z,28.20
2022-09-02T13:24:34.675Z,28.20
2022-09-02T13:27:21.529Z,28.30
2022-09-02T13:29:49.172Z,28.30
2022-09-02T13:32:23.843Z,28.30
2022-09-02T13:34:55.254Z,28.30
2022-09-02T13:37:30.315Z,28.30
2022-09-02T13:39:58.200Z,28.20
2022-09-02T13:42:27.499Z,28.20
2022-09-02T13:45:09.914Z,28.10
2022-09-02T13:47:37.908Z,28.10
2022-09-02T13:50:06.977Z,28.00
2022-09-02T13:53:20.025Z,28.00
2022-09-02T13:55:26.751Z,27.90
2022-09-02T13:58:14.593Z,27.80
2022-09-02T14:00:43.003Z,27.70
2022-09-02T14:03:16.295Z,27.70
2022-09-02T14:05:48.793Z,27.50
2022-09-02T14:08:17.353Z,27.40
2022-09-02T14:10:45.877Z,27.30
2022-09-02T14:13:13.985Z,27.20
2022-09-02T14:15:41.694Z,27.20
2022-09-02T14:18:18.098Z,27.20
2022-09-02T14:20:58.834Z,27.00
2022-09-02T14:23:27.977Z,27.00
2022-09-02T14:25:58.173Z,27.00
2022-09-02T14:28:27.382Z,26.90
2022-09-02T14:31:09.051Z,26.80
2022-09-02T14:33:36.788Z,26.80
2022-09-02T14:36:04.455Z,26.70
2022-09-02T14:38:34.866Z,26.70
2022-09-02T14:41:08.347Z,26.60
2022-09-02T14:43:42.479Z,26.60
2022-09-02T14:46:16.283Z,26.50
2022-09-02T14:48:44.027Z,26.50
2022-09-02T14:51:11.711Z,26.50
2022-09-02T14:53:44.447Z,26.40
2022-09-02T14:56:12.455Z,26.40
2022-09-02T14:58:40.107Z,26.40
2022-09-02T15:01:09.335Z,26.40
2022-09-02T15:03:38.531Z,26.30
2022-09-02T15:06:06.323Z,26.30
2022-09-02T15:08:33.916Z,26.30
2022-09-02T15:11:01.897Z,26.20
2022-09-02T15:13:32.402Z,26.20
2022-09-02T15:16:00.295Z,26.20
2022-09-02T15:18:27.980Z,26.20
2022-09-02T15:20:55.620Z,26.10
2022-09-02T15:23:24.048Z,26.10
2022-09-02T15:25:53.917Z,26.10
2022-09-02T15:28:21.556Z,26.00
2022-09-02T15:30:49.224Z,26.00
2022-09-02T15:33:17.447Z,26.00
2022-09-02T15:35:46.566Z,26.00
2022-09-02T15:38:14.257Z,26.00
2022-09-02T15:40:42.065Z,25.90
2022-09-02T15:43:09.767Z,25.90
2022-09-02T15:45:45.357Z,25.90
2022-09-02T15:48:13.114Z,25.90
2022-09-02T15:50:40.797Z,25.90
2022-09-02T15:53:08.665Z,25.80
2022-09-02T15:55:36.344Z,25.80
2022-09-02T15:58:04.037Z,25.80
2022-09-02T16:00:31.930Z,25.80
2022-09-02T16:03:01.194Z,25.80
2022-09-02T16:05:30.539Z,25.70
2022-09-02T16:07:58.172Z,25.70
2022-09-02T16:10:25.889Z,25.70
2022-09-02T16:12:53.567Z,25.70
2022-09-02T16:15:21.295Z,25.70
2022-09-02T16:17:49.951Z,25.60
2022-09-02T16:20:21.109Z,25.60
2022-09-02T16:22:49.315Z,25.60
2022-09-02T16:25:17.059Z,25.50
2022-09-02T16:27:54.832Z,25.50
2022-09-02T16:30:22.872Z,25.50
2022-09-02T16:32:51.528Z,25.40
2022-09-02T16:35:19.304Z,25.40
2022-09-02T16:37:46.977Z,25.40
2022-09-02T16:40:21.312Z,25.40
2022-09-02T16:42:49.184Z,25.40
2022-09-02T16:45:16.957Z,25.30
2022-09-02T16:47:44.743Z,25.30
2022-09-02T16:50:12.594Z,25.20
2022-09-02T16:52:40.991Z,25.20
2022-09-02T16:55:09.338Z,25.20
2022-09-02T16:57:36.990Z,25.10
2022-09-02T17:17:29.579Z,25.10
2022-09-02T17:19:57.263Z,24.90
2022-09-02T17:22:25.271Z,24.90
2022-09-02T17:24:55.604Z,24.90
2022-09-02T17:27:23.353Z,24.80
2022-09-02T17:29:51.294Z,24.80
2022-09-02T17:32:19.523Z,24.80
2022-09-02T17:34:47.420Z,24.80
2022-09-02T17:37:15.136Z,24.80
2022-09-02T17:39:42.870Z,24.80
2022-09-02T17:42:09.567Z,24.70
2022-09-02T17:44:38.643Z,24.70
2022-09-02T17:47:14.294Z,24.60
2022-09-02T17:49:44.025Z,24.60
2022-09-02T17:52:13.401Z,24.50
2022-09-02T17:54:41.864Z,24.50
2022-09-02T17:57:15.533Z,24.50
2022-09-02T17:59:46.574Z,24.40
2022-09-02T18:02:27.509Z,24.30
2022-09-02T18:05:04.546Z,24.30
2022-09-02T18:07:32.201Z,24.20
2022-09-02T18:10:00.432Z,24.20
2022-09-02T18:12:28.542Z,24.10
2022-09-02T18:14:59.686Z,24.10
2022-09-02T18:17:45.401Z,24.00
2022-09-02T18:20:16.451Z,24.00
2022-09-02T18:22:54.001Z,23.90
2022-09-02T18:25:24.968Z,23.80
2022-09-02T18:27:56.304Z,23.70
2022-09-02T18:30:33.526Z,23.70
2022-09-02T18:33:02.849Z,23.60
2022-09-02T18:35:37.027Z,23.50
2022-09-02T18:38:13.790Z,23.50
2022-09-02T18:41:02.019Z,23.50
2022-09-02T18:43:39.202Z,23.50
2022-09-02T18:46:09.242Z,23.50
2022-09-02T18:48:37.642Z,23.50
2022-09-02T18:51:24.102Z,23.50
2022-09-02T18:53:55.123Z,23.40
2022-09-02T18:56:25.628Z,23.40
2022-09-02T18:58:58.539Z,23.40
2022-09-02T19:01:31.022Z,23.40
2022-09-02T19:04:00.168Z,23.30
2022-09-02T19:06:30.805Z,23.20
2022-09-02T19:09:07.624Z,23.20
2022-09-02T19:11:39.530Z,23.10
2022-09-02T19:14:16.926Z,23.10
2022-09-02T19:16:44.962Z,23.10
2022-09-02T19:19:13.918Z,23.00
2022-09-02T19:21:44.665Z,23.00
2022-09-02T19:24:24.032Z,22.90
2022-09-02T19:26:58.939Z,22.90
2022-09-02T19:29:27.025Z,23.00
2022-09-02T19:31:55.308Z,22.90
2022-09-02T19:34:23.657Z,22.90
2022-09-02T19:36:52.177Z,22.80
2022-09-02T19:39:19.851Z,22.70
2022-09-02T19:41:50.384Z,22.70
2022-09-02T20:31:43.671Z,22.70
2022-09-02T20:34:30.066Z,22.30
2022-09-02T20:37:03.202Z,22.30
2022-09-02T20:39:49.311Z,22.20
2022-09-02T20:42:23.796Z,22.20
2022-09-02T20:45:10.175Z,22.20
2022-09-02T20:47:45.031Z,22.10
2022-09-02T20:50:31.604Z,22.10
2022-09-02T20:53:07.296Z,22.00
2022-09-02T20:55:55.291Z,22.00
2022-09-02T20:58:41.724Z,22.00
2022-09-02T21:01:11.000Z,22.00
2022-09-02T21:03:57.179Z,21.90
2022-09-02T21:06:27.186Z,21.90
2022-09-02T21:09:03.180Z,21.90
2022-09-02T21:11:35.314Z,21.80
2022-09-02T21:14:11.020Z,21.80
2022-09-02T21:16:45.452Z,21.70
2022-09-02T21:19:32.002Z,21.70
2022-09-02T21:22:02.929Z,21.70
2022-09-02T21:24:35.381Z,21.70
2022-09-02T21:27:11.978Z,21.60
2022-09-02T21:29:49.730Z,21.60
2022-09-02T21:32:24.477Z,21.60
2022-09-02T21:34:57.662Z,21.60
2022-09-02T21:37:26.273Z,21.50
2022-09-02T21:39:58.852Z,21.50
2022-09-02T21:42:32.787Z,21.50
2022-09-02T21:45:09.786Z,21.40
2022-09-02T21:47:41.158Z,21.40
2022-09-02T21:50:22.100Z,21.40
2022-09-02T21:52:49.965Z,21.40
2022-09-02T21:55:26.879Z,21.40
2022-09-02T21:58:09.763Z,21.30
2022-09-02T22:00:38.990Z,21.30
2022-09-02T22:03:16.194Z,21.20
2022-09-02T22:05:47.828Z,21.20
2022-09-02T22:08:45.555Z,21.20
2022-09-02T22:11:13.985Z,21.20
2022-09-02T22:13:42.023Z,21.20
2022-09-02T22:16:13.647Z,21.10
2022-09-02T22:18:52.211Z,21.10
2022-09-02T22:21:48.678Z,21.10
2022-09-02T22:24:17.450Z,21.00
2022-09-02T22:26:51.579Z,20.90
2022-09-02T22:29:19.206Z,20.90
2022-09-02T22:31:48.660Z,20.90
2022-09-02T22:34:18.508Z,20.80
2022-09-02T22:36:52.099Z,20.80
2022-09-02T22:39:21.037Z,20.80
2022-09-02T22:42:04.129Z,20.70
2022-09-02T22:44:50.386Z,20.70
2022-09-02T22:47:38.557Z,20.70
2022-09-02T22:50:26.145Z,20.60
2022-09-02T22:52:55.573Z,20.60
2022-09-02T22:55:30.666Z,20.60
2022-09-02T22:58:21.291Z,20.60
2022-09-02T23:00:59.130Z,20.50
2022-09-02T23:03:26.776Z,20.50
2022-09-02T23:06:13.732Z,20.50
2022-09-02T23:08:45.883Z,20.40
2022-09-02T23:11:28.334Z,20.40
2022-09-02T23:14:09.025Z,20.40
2022-09-02T23:16:45.526Z,20.40
2022-09-02T23:19:16.207Z,20.30
2022-09-02T23:22:07.607Z,20.30
2022-09-02T23:24:54.064Z,20.30
2022-09-02T23:27:37.070Z,20.20
2022-09-02T23:30:04.835Z,20.20
2022-09-02T23:32:32.927Z,20.20
2022-09-02T23:35:03.554Z,20.20
2022-09-02T23:37:46.703Z,20.10
2022-09-02T23:40:20.967Z,20.10
2022-09-02T23:42:49.886Z,20.10
2022-09-02T23:45:23.679Z,20.10
2022-09-02T23:48:09.120Z,20.00
2022-09-02T23:50:37.656Z,20.00
2022-09-02T23:53:10.900Z,20.00
2022-09-02T23:55:43.420Z,19.90
2022-09-02T23:58:22.308Z,19.90
